createdAt,value
2018-11-05T00:01:57.953Z,10.60
2018-11-05T00:05:09.674Z,10.70
2018-11-05T00:08:22.004Z,10.70
2018-11-05T00:11:39.904Z,10.70
2018-11-05T00:14:51.503Z,10.70
2018-11-05T00:18:04.137Z,10.70
2018-11-05T00:21:15.063Z,10.70
2018-11-05T00:24:29.470Z,10.70
2018-11-05T00:27:47.297Z,10.70
2018-11-05T00:30:56.938Z,10.70
2018-11-05T00:34:06.871Z,10.70
2018-11-05T00:37:17.395Z,10.60
2018-11-05T00:40:27.220Z,10.60
2018-11-05T00:43:37.130Z,10.60
2018-11-05T00:46:46.692Z,10.60
2018-11-05T00:50:03.795Z,10.60
2018-11-05T00:53:13.334Z,10.60
2018-11-05T00:56:24.221Z,10.60
2018-11-05T00:59:34.831Z,10.60
2018-11-05T01:02:44.151Z,10.60
2018-11-05T01:05:53.742Z,10.60
2018-11-05T01:09:09.405Z,10.60
2018-11-05T01:12:19.457Z,10.60
2018-11-05T01:15:30.706Z,10.60
2018-11-05T01:18:40.917Z,10.70
2018-11-05T01:21:50.838Z,10.70
2018-11-05T01:25:01.027Z,10.70
2018-11-05T01:28:11.676Z,10.70
2018-11-05T01:31:22.091Z,10.70
2018-11-05T01:34:33.418Z,10.70
2018-11-05T01:37:43.927Z,10.70
2018-11-05T01:40:54.794Z,10.70
2018-11-05T01:44:05.411Z,10.70
2018-11-05T01:47:16.856Z,10.70
2018-11-05T01:50:27.311Z,10.70
2018-11-05T01:53:38.020Z,10.70
2018-11-05T01:56:48.326Z,10.70
2018-11-05T01:59:58.962Z,10.70
2018-11-05T02:03:09.426Z,10.70
2018-11-05T02:06:19.870Z,10.70
2018-11-05T02:09:30.327Z,10.70
2018-11-05T02:12:42.902Z,10.70
2018-11-05T02:15:53.023Z,10.70
2018-11-05T02:19:04.381Z,10.70
2018-11-05T02:22:14.373Z,10.70
2018-11-05T02:25:24.058Z,10.70
2018-11-05T02:28:33.604Z,10.80
2018-11-05T02:31:44.036Z,10.80
2018-11-05T02:34:54.096Z,10.80
2018-11-05T02:38:04.909Z,10.80
2018-11-05T02:41:15.603Z,10.80
2018-11-05T02:44:27.309Z,10.80
2018-11-05T02:47:39.908Z,10.80
2018-11-05T02:50:53.324Z,10.80
2018-11-05T02:54:06.494Z,10.80
2018-11-05T02:57:17.743Z,10.80
2018-11-05T03:00:29.578Z,10.80
2018-11-05T03:03:40.870Z,10.80
2018-11-05T03:06:51.399Z,10.80
2018-11-05T03:10:01.739Z,10.80
2018-11-05T03:13:13.413Z,10.80
2018-11-05T03:16:23.608Z,10.90
2018-11-05T03:19:34.178Z,10.90
2018-11-05T03:22:44.721Z,10.90
2018-11-05T03:25:55.261Z,10.90
2018-11-05T03:29:06.475Z,10.90
2018-11-05T03:32:17.124Z,10.90
2018-11-05T03:35:27.778Z,10.90
2018-11-05T03:38:38.139Z,10.90
2018-11-05T03:41:48.978Z,10.90
2018-11-05T03:44:59.561Z,10.90
2018-11-05T03:48:09.365Z,10.90
2018-11-05T03:51:19.785Z,10.90
2018-11-05T03:54:29.628Z,10.90
2018-11-05T03:57:39.452Z,10.90
2018-11-05T04:00:48.901Z,10.80
2018-11-05T04:03:59.290Z,10.80
2018-11-05T04:07:09.864Z,10.80
2018-11-05T04:10:20.255Z,10.80
2018-11-05T04:13:30.558Z,10.80
2018-11-05T04:16:39.999Z,10.80
2018-11-05T04:19:50.533Z,10.80
2018-11-05T04:23:01.341Z,10.70
2018-11-05T04:26:12.011Z,10.70
2018-11-05T04:29:23.263Z,10.70
2018-11-05T04:32:33.837Z,10.70
2018-11-05T04:35:44.722Z,10.70
2018-11-05T04:38:55.628Z,10.70
2018-11-05T04:42:06.036Z,10.70
2018-11-05T04:45:16.876Z,10.70
2018-11-05T04:48:26.711Z,10.70
2018-11-05T04:51:36.903Z,10.70
2018-11-05T04:54:46.622Z,10.60
2018-11-05T04:57:56.588Z,10.60
2018-11-05T05:01:06.691Z,10.60
2018-11-05T05:04:17.421Z,10.60
2018-11-05T05:07:27.576Z,10.60
2018-11-05T05:10:37.089Z,10.60
2018-11-05T05:13:46.572Z,10.60
2018-11-05T05:16:56.663Z,10.60
2018-11-05T05:20:09.766Z,10.60
2018-11-05T05:23:19.253Z,10.60
2018-11-05T05:26:28.827Z,10.60
2018-11-05T05:29:38.347Z,10.50
2018-11-05T05:32:48.713Z,10.50
2018-11-05T05:35:59.044Z,10.50
2018-11-05T05:39:09.306Z,10.50
2018-11-05T05:42:20.223Z,10.50
2018-11-05T05:45:29.816Z,10.50
2018-11-05T05:48:39.215Z,10.50
2018-11-05T05:51:48.656Z,10.50
2018-11-05T05:54:58.075Z,10.50
2018-11-05T05:58:07.456Z,10.50
2018-11-05T06:01:17.189Z,10.50
2018-11-05T06:04:27.752Z,10.50
2018-11-05T06:07:37.313Z,10.40
2018-11-05T06:10:46.680Z,10.50
2018-11-05T06:13:56.116Z,10.50
2018-11-05T06:17:05.601Z,10.50
2018-11-05T06:20:17.779Z,10.50
2018-11-05T06:23:27.412Z,10.40
2018-11-05T06:26:36.865Z,10.50
2018-11-05T06:29:46.301Z,10.50
2018-11-05T06:32:55.699Z,10.50
2018-11-05T06:36:05.272Z,10.40
2018-11-05T06:39:15.755Z,10.50
2018-11-05T06:42:25.148Z,10.50
2018-11-05T06:45:34.845Z,10.50
2018-11-05T06:48:47.133Z,10.50
2018-11-05T06:51:56.667Z,10.50
2018-11-05T06:55:07.263Z,10.50
2018-11-05T06:58:16.694Z,10.50
2018-11-05T07:01:26.060Z,10.40
2018-11-05T07:04:35.425Z,10.40
2018-11-05T07:07:44.718Z,10.40
2018-11-05T07:10:54.297Z,10.40
2018-11-05T07:14:03.998Z,10.40
2018-11-05T07:17:15.111Z,10.40
2018-11-05T07:20:25.967Z,10.40
2018-11-05T07:23:35.506Z,10.40
2018-11-05T07:26:44.737Z,10.50
2018-11-05T07:29:54.055Z,10.50
2018-11-05T07:33:03.319Z,10.60
2018-11-05T07:36:12.411Z,10.60
2018-11-05T07:39:21.668Z,10.50
2018-11-05T07:42:30.993Z,10.50
2018-11-05T07:45:40.258Z,10.60
2018-11-05T07:48:49.411Z,10.50
2018-11-05T07:51:58.653Z,10.60
2018-11-05T07:55:09.621Z,10.60
2018-11-05T07:58:18.741Z,10.70
2018-11-05T08:01:28.042Z,10.80
2018-11-05T08:04:37.366Z,10.80
2018-11-05T08:07:48.394Z,10.80
2018-11-05T08:11:00.814Z,10.80
2018-11-05T08:14:10.339Z,10.90
2018-11-05T08:17:19.703Z,10.90
2018-11-05T08:20:29.044Z,10.90
2018-11-05T08:23:38.293Z,10.90
2018-11-05T08:26:47.540Z,11.00
2018-11-05T08:29:56.706Z,10.90
2018-11-05T08:33:06.092Z,10.90
2018-11-05T08:36:15.372Z,10.90
2018-11-05T08:39:24.664Z,11.10
2018-11-05T08:42:33.991Z,11.20
2018-11-05T08:45:43.355Z,11.20
2018-11-05T08:52:08.645Z,11.50
2018-11-05T08:55:19.292Z,11.60
2018-11-05T08:58:28.608Z,11.50
2018-11-05T09:01:37.971Z,11.50
2018-11-05T09:04:47.320Z,11.50
2018-11-05T09:07:56.855Z,11.40
2018-11-05T09:11:06.362Z,11.40
2018-11-05T09:14:15.251Z,11.20
2018-11-05T09:17:24.486Z,11.20
2018-11-05T09:20:33.967Z,11.20
2018-11-05T09:23:43.134Z,11.20
2018-11-05T09:26:52.297Z,11.30
2018-11-05T09:30:01.631Z,11.30
2018-11-05T09:33:11.023Z,11.20
2018-11-05T09:36:20.336Z,11.20
2018-11-05T09:39:29.640Z,11.10
2018-11-05T09:42:39.701Z,11.10
2018-11-05T09:45:49.031Z,11.20
2018-11-05T09:48:58.202Z,11.30
2018-11-05T09:52:07.507Z,11.40
2018-11-05T09:55:16.997Z,11.50
2018-11-05T09:58:26.303Z,11.60
2018-11-05T10:01:35.461Z,11.70
2018-11-05T10:04:45.393Z,11.80
2018-11-05T10:07:54.271Z,12.00
2018-11-05T10:11:03.560Z,12.10
2018-11-05T10:14:12.635Z,12.10
2018-11-05T10:17:21.934Z,12.10
2018-11-05T10:20:31.321Z,12.20
2018-11-05T10:23:40.541Z,12.20
2018-11-05T10:26:49.899Z,12.30
2018-11-05T10:29:58.982Z,12.50
2018-11-05T10:33:08.275Z,12.70
2018-11-05T10:36:17.487Z,12.90
2018-11-05T10:39:26.711Z,13.00
2018-11-05T10:42:35.984Z,13.10
2018-11-05T10:45:45.491Z,13.10
2018-11-05T10:48:54.662Z,13.20
2018-11-05T10:52:04.120Z,13.20
2018-11-05T10:55:13.378Z,13.20
2018-11-05T10:58:22.785Z,13.20
2018-11-05T11:01:37.604Z,13.30
2018-11-05T11:04:47.058Z,13.30
2018-11-05T11:07:57.238Z,13.40
2018-11-05T11:11:06.481Z,13.60
2018-11-05T11:14:15.656Z,13.70
2018-11-05T11:17:24.889Z,13.70
2018-11-05T11:20:34.328Z,13.60
2018-11-05T11:23:43.663Z,13.60
2018-11-05T11:26:53.563Z,13.70
2018-11-05T11:30:03.033Z,13.70
2018-11-05T11:33:12.292Z,13.80
2018-11-05T11:36:21.566Z,13.80
2018-11-05T11:39:30.858Z,13.90
2018-11-05T11:42:41.004Z,13.80
2018-11-05T11:45:50.413Z,13.90
2018-11-05T11:48:59.700Z,13.90
2018-11-05T11:52:09.096Z,14.00
2018-11-05T11:55:20.692Z,14.00
2018-11-05T11:58:29.844Z,14.10
2018-11-05T12:01:44.638Z,14.10
2018-11-05T12:04:54.018Z,14.00
2018-11-05T12:08:03.210Z,14.10
2018-11-05T12:11:12.719Z,14.10
2018-11-05T12:14:22.028Z,14.10
2018-11-05T12:17:31.188Z,14.00
2018-11-05T12:20:40.739Z,14.10
2018-11-05T12:23:50.504Z,14.10
2018-11-05T12:27:00.015Z,14.10
2018-11-05T12:30:11.903Z,14.10
2018-11-05T12:33:21.066Z,14.20
2018-11-05T12:36:30.469Z,14.30
2018-11-05T12:39:39.808Z,14.20
2018-11-05T12:42:49.824Z,14.30
2018-11-05T12:45:59.134Z,14.30
2018-11-05T12:49:08.335Z,14.40
2018-11-05T12:52:17.839Z,14.40
2018-11-05T12:55:27.322Z,14.40
2018-11-05T12:58:36.446Z,14.40
2018-11-05T13:01:45.712Z,14.30
2018-11-05T13:04:55.543Z,14.20
2018-11-05T13:08:04.867Z,14.10
2018-11-05T13:11:14.098Z,14.00
2018-11-05T13:14:23.388Z,14.00
2018-11-05T13:17:32.548Z,14.00
2018-11-05T13:20:41.863Z,14.00
2018-11-05T13:23:51.128Z,14.00
2018-11-05T13:27:00.283Z,14.00
2018-11-05T13:30:10.122Z,14.00
2018-11-05T13:33:19.276Z,14.00
2018-11-05T13:36:28.923Z,14.10
2018-11-05T13:39:38.286Z,14.20
2018-11-05T13:42:48.049Z,14.20
2018-11-05T13:45:57.546Z,14.10
2018-11-05T13:49:06.989Z,14.10
2018-11-05T13:52:15.900Z,14.10
2018-11-05T13:55:25.316Z,14.00
2018-11-05T13:58:34.655Z,14.10
2018-11-05T14:01:43.938Z,14.00
2018-11-05T14:04:53.044Z,14.00
2018-11-05T14:08:02.207Z,14.00
2018-11-05T14:11:11.334Z,13.90
2018-11-05T14:14:20.659Z,13.90
2018-11-05T14:17:29.986Z,13.90
2018-11-05T14:20:39.241Z,13.90
2018-11-05T14:23:48.459Z,13.90
2018-11-05T14:26:57.593Z,13.90
2018-11-05T14:30:08.178Z,13.80
2018-11-05T14:33:17.290Z,13.80
2018-11-05T14:36:26.505Z,13.80
2018-11-05T14:39:35.729Z,13.80
2018-11-05T14:42:45.010Z,13.80
2018-11-05T14:45:54.262Z,13.70
2018-11-05T14:49:03.638Z,13.70
2018-11-05T14:52:12.902Z,13.60
2018-11-05T14:55:22.070Z,13.60
2018-11-05T14:58:31.321Z,13.60
2018-11-05T15:01:40.621Z,13.60
2018-11-05T15:04:50.096Z,13.60
2018-11-05T15:07:59.328Z,13.60
2018-11-05T15:11:08.568Z,13.60
2018-11-05T15:14:17.915Z,13.60
2018-11-05T15:17:27.175Z,13.60
2018-11-05T15:20:36.392Z,13.60
2018-11-05T15:23:45.739Z,13.60
2018-11-05T15:26:55.140Z,13.50
2018-11-05T15:30:04.931Z,13.50
2018-11-05T15:33:14.272Z,13.40
2018-11-05T15:36:23.466Z,13.30
2018-11-05T15:39:32.706Z,13.30
2018-11-05T15:42:41.965Z,13.20
2018-11-05T15:45:51.382Z,13.20
2018-11-05T15:49:00.710Z,13.10
2018-11-05T15:52:10.117Z,13.10
2018-11-05T15:55:19.096Z,13.00
2018-11-05T15:58:28.263Z,12.90
2018-11-05T16:01:37.500Z,12.80
2018-11-05T16:04:46.920Z,12.70
2018-11-05T16:07:56.306Z,12.60
2018-11-05T16:11:05.642Z,12.60
2018-11-05T16:14:14.979Z,12.50
2018-11-05T16:17:24.199Z,12.50
2018-11-05T16:20:33.434Z,12.50
2018-11-05T16:23:42.686Z,12.40
2018-11-05T16:26:52.171Z,12.40
2018-11-05T16:30:01.326Z,12.40
2018-11-05T16:33:10.631Z,12.40
2018-11-05T16:36:19.847Z,12.40
2018-11-05T16:39:29.062Z,12.40
2018-11-05T16:42:38.980Z,12.40
2018-11-05T16:45:48.292Z,12.40
2018-11-05T16:48:57.549Z,12.40
2018-11-05T16:52:07.077Z,12.40
2018-11-05T16:55:16.415Z,12.30
2018-11-05T16:58:25.569Z,12.20
2018-11-05T17:01:35.441Z,12.10
2018-11-05T17:04:45.872Z,12.10
2018-11-05T17:07:55.240Z,11.90
2018-11-05T17:11:04.771Z,11.80
2018-11-05T17:14:14.136Z,11.80
2018-11-05T17:17:23.451Z,11.70
2018-11-05T17:20:32.670Z,11.70
2018-11-05T17:23:41.928Z,11.60
2018-11-05T17:26:51.280Z,11.50
2018-11-05T17:30:00.530Z,11.60
2018-11-05T17:33:09.955Z,11.60
2018-11-05T17:36:19.364Z,11.60
2018-11-05T17:39:28.632Z,11.60
2018-11-05T17:42:38.116Z,11.60
2018-11-05T17:45:47.312Z,11.60
2018-11-05T17:48:56.646Z,11.50
2018-11-05T17:52:06.881Z,11.60
2018-11-05T17:55:16.275Z,11.60
2018-11-05T17:58:25.388Z,11.60
2018-11-05T18:01:34.788Z,11.50
2018-11-05T18:04:43.920Z,11.50
2018-11-05T18:07:53.278Z,11.50
2018-11-05T18:11:02.580Z,11.40
2018-11-05T18:14:11.916Z,11.40
2018-11-05T18:17:21.184Z,11.30
2018-11-05T18:20:30.446Z,11.20
2018-11-05T18:23:40.007Z,11.20
2018-11-05T18:26:49.310Z,11.30
2018-11-05T18:29:58.775Z,11.20
2018-11-05T18:33:07.901Z,11.20
2018-11-05T18:36:16.997Z,11.20
2018-11-05T18:39:26.300Z,11.10
2018-11-05T18:42:35.500Z,11.00
2018-11-05T18:45:44.961Z,11.00
2018-11-05T18:48:54.312Z,10.90
2018-11-05T18:52:03.912Z,11.00
2018-11-05T18:55:14.605Z,10.90
2018-11-05T18:58:24.042Z,10.90
2018-11-05T19:01:33.342Z,10.80
2018-11-05T19:04:42.746Z,10.80
2018-11-05T19:07:52.662Z,10.80
2018-11-05T19:11:01.775Z,10.70
2018-11-05T19:14:10.936Z,10.70
2018-11-05T19:17:20.186Z,10.60
2018-11-05T19:20:29.299Z,10.50
2018-11-05T19:23:38.540Z,10.50
2018-11-05T19:26:47.586Z,10.50
2018-11-05T19:29:56.775Z,10.50
2018-11-05T19:33:06.636Z,10.50
2018-11-05T19:36:15.913Z,10.40
2018-11-05T19:39:25.090Z,10.40
2018-11-05T19:42:34.619Z,10.40
2018-11-05T19:45:43.695Z,10.40
2018-11-05T19:48:53.026Z,10.40
2018-11-05T19:52:02.362Z,10.40
2018-11-05T19:55:12.754Z,10.40
2018-11-05T19:58:22.033Z,10.30
2018-11-05T20:01:31.278Z,10.30
2018-11-05T20:04:40.507Z,10.20
2018-11-05T20:07:50.426Z,10.20
2018-11-05T20:10:59.567Z,10.20
2018-11-05T20:14:08.841Z,10.10
2018-11-05T20:17:18.007Z,10.10
2018-11-05T20:20:27.487Z,10.00
2018-11-05T20:23:36.619Z,10.10
2018-11-05T20:26:46.046Z,10.10
2018-11-05T20:29:55.364Z,10.10
2018-11-05T20:33:05.017Z,10.20
2018-11-05T20:36:14.067Z,10.20
2018-11-05T20:39:23.452Z,10.20
2018-11-05T20:42:32.838Z,10.20
2018-11-05T20:45:41.944Z,10.30
2018-11-05T20:48:51.215Z,10.40
2018-11-05T20:52:00.499Z,10.40
2018-11-05T20:55:11.420Z,10.50
2018-11-05T20:58:20.656Z,10.60
2018-11-05T21:01:30.011Z,10.60
2018-11-05T21:04:39.384Z,10.60
2018-11-05T21:07:48.426Z,10.60
2018-11-05T21:10:57.764Z,10.60
2018-11-05T21:14:07.212Z,10.50
2018-11-05T21:17:16.662Z,10.60
2018-11-05T21:20:25.799Z,10.50
2018-11-05T21:23:34.927Z,10.50
2018-11-05T21:26:44.489Z,10.40
2018-11-05T21:29:53.687Z,10.50
2018-11-05T21:33:03.015Z,10.50
2018-11-05T21:36:12.227Z,10.50
2018-11-05T21:39:21.334Z,10.50
2018-11-05T21:42:31.009Z,10.50
2018-11-05T21:45:40.332Z,10.50
2018-11-05T21:48:49.655Z,10.50
2018-11-05T21:51:58.958Z,10.50
2018-11-05T21:55:08.473Z,10.60
2018-11-05T21:58:17.635Z,10.50
2018-11-05T22:01:33.810Z,10.40
2018-11-05T22:04:43.084Z,10.40
2018-11-05T22:07:52.299Z,10.40
2018-11-05T22:11:01.555Z,10.50
2018-11-05T22:14:10.816Z,10.50
2018-11-05T22:17:20.029Z,10.50
2018-11-05T22:20:29.231Z,10.70
2018-11-05T22:23:38.503Z,10.70
2018-11-05T22:26:47.751Z,10.80
2018-11-05T22:29:57.748Z,10.70
2018-11-05T22:33:07.088Z,10.60
2018-11-05T22:36:16.535Z,10.60
2018-11-05T22:39:25.880Z,10.60
2018-11-05T22:42:35.068Z,10.60
2018-11-05T22:45:44.557Z,10.70
2018-11-05T22:48:53.886Z,10.80
2018-11-05T22:52:03.051Z,10.80
2018-11-05T22:55:12.267Z,10.80
2018-11-05T22:58:21.675Z,10.80
2018-11-05T23:01:36.535Z,10.70
2018-11-05T23:04:45.855Z,10.60
2018-11-05T23:07:56.104Z,10.50
2018-11-05T23:11:05.472Z,10.50
2018-11-05T23:14:14.619Z,10.50
2018-11-05T23:17:24.071Z,10.50
2018-11-05T23:20:34.494Z,10.50
2018-11-05T23:23:44.031Z,10.50
2018-11-05T23:26:53.538Z,10.50
2018-11-05T23:30:03.338Z,10.50
2018-11-05T23:33:13.029Z,10.50
2018-11-05T23:36:23.589Z,10.50
2018-11-05T23:39:35.189Z,10.50
2018-11-05T23:42:44.563Z,10.40
2018-11-05T23:45:56.178Z,10.40
2018-11-05T23:49:06.655Z,10.40
2018-11-05T23:52:15.962Z,10.40
2018-11-05T23:55:25.094Z,10.40
2018-11-05T23:58:34.307Z,10.40
